sensor_id;sensor_type;location;lat;lon;timestamp;temperature;humidity
73277;DHT22;61501;43.316;5.372;2023-12-29T00:01:54;13.40;99.90
73277;DHT22;61501;43.316;5.372;2023-12-29T00:04:20;13.30;99.90
73277;DHT22;61501;43.316;5.372;2023-12-29T00:06:45;13.40;99.90
73277;DHT22;61501;43.316;5.372;2023-12-29T00:09:11;13.40;99.90
73277;DHT22;61501;43.316;5.372;2023-12-29T00:11:38;13.40;99.90
73277;DHT22;61501;43.316;5.372;2023-12-29T00:14:03;13.30;99.90
73277;DHT22;61501;43.316;5.372;2023-12-29T00:16:29;13.30;99.90
73277;DHT22;61501;43.316;5.372;2023-12-29T00:18:55;13.30;99.90
73277;DHT22;61501;43.316;5.372;2023-12-29T00:21:20;13.20;99.90
73277;DHT22;61501;43.316;5.372;2023-12-29T00:23:47;13.30;99.90
73277;DHT22;61501;43.316;5.372;2023-12-29T00:26:16;13.30;99.90
73277;DHT22;61501;43.316;5.372;2023-12-29T00:28:42;13.20;99.90
73277;DHT22;61501;43.316;5.372;2023-12-29T00:31:08;13.30;99.90
73277;DHT22;61501;43.316;5.372;2023-12-29T00:33:34;13.30;99.90
73277;DHT22;61501;43.316;5.372;2023-12-29T00:36:00;13.20;99.90
73277;DHT22;61501;43.316;5.372;2023-12-29T00:38:27;13.20;99.90
73277;DHT22;61501;43.316;5.372;2023-12-29T00:40:56;13.20;99.90
73277;DHT22;61501;43.316;5.372;2023-12-29T00:43:21;13.20;99.90
73277;DHT22;61501;43.316;5.372;2023-12-29T00:45:48;13.10;99.90
73277;DHT22;61501;43.316;5.372;2023-12-29T00:48:13;13.10;99.90
73277;DHT22;61501;43.316;5.372;2023-12-29T00:50:39;13.10;99.90
73277;DHT22;61501;43.316;5.372;2023-12-29T00:53:05;13.10;99.90
73277;DHT22;61501;43.316;5.372;2023-12-29T00:55:30;13.10;99.90
73277;DHT22;61501;43.316;5.372;2023-12-29T00:57:56;13.10;99.90
73277;DHT22;61501;43.316;5.372;2023-12-29T01:00:21;13.00;99.90
73277;DHT22;61501;43.316;5.372;2023-12-29T01:02:47;13.10;99.90
73277;DHT22;61501;43.316;5.372;2023-12-29T01:05:16;13.10;99.90
73277;DHT22;61501;43.316;5.372;2023-12-29T01:07:45;13.10;99.90
73277;DHT22;61501;43.316;5.372;2023-12-29T01:10:10;13.10;99.90
73277;DHT22;61501;43.316;5.372;2023-12-29T01:12:36;13.10;99.90
73277;DHT22;61501;43.316;5.372;2023-12-29T01:15:02;13.10;99.90
73277;DHT22;61501;43.316;5.372;2023-12-29T01:17:27;13.10;99.90
73277;DHT22;61501;43.316;5.372;2023-12-29T01:19:54;13.10;99.90
73277;DHT22;61501;43.316;5.372;2023-12-29T01:22:20;13.10;99.90
73277;DHT22;61501;43.316;5.372;2023-12-29T01:24:45;13.10;99.90
73277;DHT22;61501;43.316;5.372;2023-12-29T01:27:11;13.10;99.90
73277;DHT22;61501;43.316;5.372;2023-12-29T01:29:37;13.10;99.90
73277;DHT22;61501;43.316;5.372;2023-12-29T01:32:03;13.20;99.90
73277;DHT22;61501;43.316;5.372;2023-12-29T01:34:29;13.20;99.90
73277;DHT22;61501;43.316;5.372;2023-12-29T01:37:02;13.20;99.90
73277;DHT22;61501;43.316;5.372;2023-12-29T01:39:29;13.20;99.90
73277;DHT22;61501;43.316;5.372;2023-12-29T01:41:57;13.10;99.90
73277;DHT22;61501;43.316;5.372;2023-12-29T01:44:23;13.10;99.90
73277;DHT22;61501;43.316;5.372;2023-12-29T01:46:50;13.10;99.90
73277;DHT22;61501;43.316;5.372;2023-12-29T01:49:17;13.10;99.90
73277;DHT22;61501;43.316;5.372;2023-12-29T01:51:44;13.10;99.90
73277;DHT22;61501;43.316;5.372;2023-12-29T01:54:11;13.10;99.90
73277;DHT22;61501;43.316;5.372;2023-12-29T01:56:38;13.10;99.90
73277;DHT22;61501;43.316;5.372;2023-12-29T01:59:04;13.10;99.90
73277;DHT22;61501;43.316;5.372;2023-12-29T02:01:30;13.20;99.90
73277;DHT22;61501;43.316;5.372;2023-12-29T02:03:57;13.20;99.90
73277;DHT22;61501;43.316;5.372;2023-12-29T02:06:24;13.20;99.90
73277;DHT22;61501;43.316;5.372;2023-12-29T02:08:51;13.10;99.90
73277;DHT22;61501;43.316;5.372;2023-12-29T02:11:17;13.10;99.90
73277;DHT22;61501;43.316;5.372;2023-12-29T02:13:43;13.10;99.90
73277;DHT22;61501;43.316;5.372;2023-12-29T02:16:28;13.10;99.90
73277;DHT22;61501;43.316;5.372;2023-12-29T02:18:57;13.10;99.90
73277;DHT22;61501;43.316;5.372;2023-12-29T02:21:25;13.10;99.90
73277;DHT22;61501;43.316;5.372;2023-12-29T02:23:50;13.00;99.90
73277;DHT22;61501;43.316;5.372;2023-12-29T02:26:16;13.00;99.90
73277;DHT22;61501;43.316;5.372;2023-12-29T02:28:48;13.00;99.90
73277;DHT22;61501;43.316;5.372;2023-12-29T02:31:20;12.90;99.90
73277;DHT22;61501;43.316;5.372;2023-12-29T02:33:50;12.90;99.90
73277;DHT22;61501;43.316;5.372;2023-12-29T02:36:18;12.90;99.90
73277;DHT22;61501;43.316;5.372;2023-12-29T02:38:44;13.00;99.90
73277;DHT22;61501;43.316;5.372;2023-12-29T02:41:11;13.00;99.90
73277;DHT22;61501;43.316;5.372;2023-12-29T02:43:38;13.00;99.90
73277;DHT22;61501;43.316;5.372;2023-12-29T02:46:04;13.00;99.90
73277;DHT22;61501;43.316;5.372;2023-12-29T02:48:30;13.00;99.90
73277;DHT22;61501;43.316;5.372;2023-12-29T02:50:55;13.00;99.90
73277;DHT22;61501;43.316;5.372;2023-12-29T02:53:21;13.00;99.90
73277;DHT22;61501;43.316;5.372;2023-12-29T02:55:46;12.90;99.90
73277;DHT22;61501;43.316;5.372;2023-12-29T02:58:12;12.90;99.90
73277;DHT22;61501;43.316;5.372;2023-12-29T03:00:38;12.90;99.90
73277;DHT22;61501;43.316;5.372;2023-12-29T03:03:03;12.80;99.90
73277;DHT22;61501;43.316;5.372;2023-12-29T03:05:29;12.80;99.90
73277;DHT22;61501;43.316;5.372;2023-12-29T03:07:55;12.70;99.90
73277;DHT22;61501;43.316;5.372;2023-12-29T03:10:20;12.70;99.90
73277;DHT22;61501;43.316;5.372;2023-12-29T03:12:46;12.70;99.90
73277;DHT22;61501;43.316;5.372;2023-12-29T03:15:12;12.70;99.90
73277;DHT22;61501;43.316;5.372;2023-12-29T03:17:37;12.70;99.90
73277;DHT22;61501;43.316;5.372;2023-12-29T03:20:03;12.70;99.90
73277;DHT22;61501;43.316;5.372;2023-12-29T03:22:30;12.70;99.90
73277;DHT22;61501;43.316;5.372;2023-12-29T03:24:55;12.70;99.90
73277;DHT22;61501;43.316;5.372;2023-12-29T03:27:21;12.80;99.90
73277;DHT22;61501;43.316;5.372;2023-12-29T03:29:47;12.80;99.90
73277;DHT22;61501;43.316;5.372;2023-12-29T03:32:12;12.80;99.90
73277;DHT22;61501;43.316;5.372;2023-12-29T03:34:38;12.80;99.90
73277;DHT22;61501;43.316;5.372;2023-12-29T03:37:04;12.70;99.90
73277;DHT22;61501;43.316;5.372;2023-12-29T03:39:29;12.70;99.90
73277;DHT22;61501;43.316;5.372;2023-12-29T03:41:55;12.60;99.90
73277;DHT22;61501;43.316;5.372;2023-12-29T03:44:21;12.70;99.90
73277;DHT22;61501;43.316;5.372;2023-12-29T03:46:46;12.70;99.90
73277;DHT22;61501;43.316;5.372;2023-12-29T03:49:12;12.70;99.90
73277;DHT22;61501;43.316;5.372;2023-12-29T03:51:38;12.60;99.90
73277;DHT22;61501;43.316;5.372;2023-12-29T03:54:04;12.60;99.90
73277;DHT22;61501;43.316;5.372;2023-12-29T03:56:29;12.50;99.90
73277;DHT22;61501;43.316;5.372;2023-12-29T03:58:55;12.50;99.90
73277;DHT22;61501;43.316;5.372;2023-12-29T04:01:20;12.50;99.90
73277;DHT22;61501;43.316;5.372;2023-12-29T04:03:46;12.50;99.90
73277;DHT22;61501;43.316;5.372;2023-12-29T04:06:12;12.50;99.90
73277;DHT22;61501;43.316;5.372;2023-12-29T04:08:38;12.50;99.90
73277;DHT22;61501;43.316;5.372;2023-12-29T04:11:04;12.40;99.90
73277;DHT22;61501;43.316;5.372;2023-12-29T04:13:31;12.50;99.90
73277;DHT22;61501;43.316;5.372;2023-12-29T04:15:57;12.40;99.90
73277;DHT22;61501;43.316;5.372;2023-12-29T04:18:23;12.50;99.90
73277;DHT22;61501;43.316;5.372;2023-12-29T04:20:49;12.50;99.90
73277;DHT22;61501;43.316;5.372;2023-12-29T04:23:15;12.50;99.90
73277;DHT22;61501;43.316;5.372;2023-12-29T04:25:41;12.40;99.90
73277;DHT22;61501;43.316;5.372;2023-12-29T04:28:07;12.40;99.90
73277;DHT22;61501;43.316;5.372;2023-12-29T04:30:34;12.40;99.90
73277;DHT22;61501;43.316;5.372;2023-12-29T04:33:00;12.30;99.90
73277;DHT22;61501;43.316;5.372;2023-12-29T04:35:25;12.40;99.90
73277;DHT22;61501;43.316;5.372;2023-12-29T04:37:51;12.40;99.90
73277;DHT22;61501;43.316;5.372;2023-12-29T04:40:18;12.40;99.90
73277;DHT22;61501;43.316;5.372;2023-12-29T04:42:43;12.40;99.90
73277;DHT22;61501;43.316;5.372;2023-12-29T04:45:09;12.40;99.90
73277;DHT22;61501;43.316;5.372;2023-12-29T04:47:35;12.50;99.90
73277;DHT22;61501;43.316;5.372;2023-12-29T04:50:01;12.40;99.90
73277;DHT22;61501;43.316;5.372;2023-12-29T04:52:27;12.40;99.90
73277;DHT22;61501;43.316;5.372;2023-12-29T04:54:53;12.40;99.90
73277;DHT22;61501;43.316;5.372;2023-12-29T04:57:18;12.50;99.90
73277;DHT22;61501;43.316;5.372;2023-12-29T04:59:44;12.50;99.90
73277;DHT22;61501;43.316;5.372;2023-12-29T05:02:10;12.40;99.90
73277;DHT22;61501;43.316;5.372;2023-12-29T05:04:35;12.40;99.90
73277;DHT22;61501;43.316;5.372;2023-12-29T05:07:02;12.40;99.90
73277;DHT22;61501;43.316;5.372;2023-12-29T05:09:27;12.30;99.90
73277;DHT22;61501;43.316;5.372;2023-12-29T05:11:53;12.30;99.90
73277;DHT22;61501;43.316;5.372;2023-12-29T05:14:19;12.30;99.90
73277;DHT22;61501;43.316;5.372;2023-12-29T05:16:44;12.20;99.90
73277;DHT22;61501;43.316;5.372;2023-12-29T05:19:10;12.20;99.90
73277;DHT22;61501;43.316;5.372;2023-12-29T05:21:35;12.20;99.90
73277;DHT22;61501;43.316;5.372;2023-12-29T05:24:01;12.20;99.90
73277;DHT22;61501;43.316;5.372;2023-12-29T05:26:27;12.10;99.90
73277;DHT22;61501;43.316;5.372;2023-12-29T05:28:52;12.10;99.90
73277;DHT22;61501;43.316;5.372;2023-12-29T05:31:18;12.10;99.90
73277;DHT22;61501;43.316;5.372;2023-12-29T05:33:44;12.20;99.90
73277;DHT22;61501;43.316;5.372;2023-12-29T05:36:10;12.20;99.90
73277;DHT22;61501;43.316;5.372;2023-12-29T05:38:39;12.20;99.90
73277;DHT22;61501;43.316;5.372;2023-12-29T05:41:06;12.20;99.90
73277;DHT22;61501;43.316;5.372;2023-12-29T05:43:33;12.20;99.90
73277;DHT22;61501;43.316;5.372;2023-12-29T05:45:59;12.20;99.90
73277;DHT22;61501;43.316;5.372;2023-12-29T05:48:25;12.30;99.90
73277;DHT22;61501;43.316;5.372;2023-12-29T05:50:51;12.20;99.90
73277;DHT22;61501;43.316;5.372;2023-12-29T05:53:17;12.20;99.90
73277;DHT22;61501;43.316;5.372;2023-12-29T05:55:45;12.20;99.90
73277;DHT22;61501;43.316;5.372;2023-12-29T05:58:11;12.30;99.90
73277;DHT22;61501;43.316;5.372;2023-12-29T06:00:37;12.30;99.90
73277;DHT22;61501;43.316;5.372;2023-12-29T06:03:05;12.30;99.90
73277;DHT22;61501;43.316;5.372;2023-12-29T06:05:31;12.30;99.90
73277;DHT22;61501;43.316;5.372;2023-12-29T06:07:57;12.30;99.90
73277;DHT22;61501;43.316;5.372;2023-12-29T06:10:23;12.30;99.90
73277;DHT22;61501;43.316;5.372;2023-12-29T06:12:49;12.30;99.90
73277;DHT22;61501;43.316;5.372;2023-12-29T06:15:15;12.30;99.90
73277;DHT22;61501;43.316;5.372;2023-12-29T06:17:41;12.30;99.90
73277;DHT22;61501;43.316;5.372;2023-12-29T06:20:07;12.30;99.90
73277;DHT22;61501;43.316;5.372;2023-12-29T06:22:39;12.30;99.90
73277;DHT22;61501;43.316;5.372;2023-12-29T06:25:05;12.30;99.90
73277;DHT22;61501;43.316;5.372;2023-12-29T06:27:31;12.30;99.90
73277;DHT22;61501;43.316;5.372;2023-12-29T06:29:57;12.30;99.90
73277;DHT22;61501;43.316;5.372;2023-12-29T06:32:23;12.30;99.90
73277;DHT22;61501;43.316;5.372;2023-12-29T06:34:49;12.30;99.90
73277;DHT22;61501;43.316;5.372;2023-12-29T06:37:14;12.30;99.90
73277;DHT22;61501;43.316;5.372;2023-12-29T06:39:40;12.30;99.90
73277;DHT22;61501;43.316;5.372;2023-12-29T06:42:06;12.20;99.90
73277;DHT22;61501;43.316;5.372;2023-12-29T06:44:31;12.20;99.90
73277;DHT22;61501;43.316;5.372;2023-12-29T06:46:57;12.30;99.90
73277;DHT22;61501;43.316;5.372;2023-12-29T06:49:22;12.30;99.90
73277;DHT22;61501;43.316;5.372;2023-12-29T06:51:48;12.30;99.90
73277;DHT22;61501;43.316;5.372;2023-12-29T06:54:14;12.30;99.90
73277;DHT22;61501;43.316;5.372;2023-12-29T06:56:39;12.30;99.90
73277;DHT22;61501;43.316;5.372;2023-12-29T06:59:06;12.30;99.90
73277;DHT22;61501;43.316;5.372;2023-12-29T07:01:32;12.30;99.90
73277;DHT22;61501;43.316;5.372;2023-12-29T07:03:58;12.40;99.90
73277;DHT22;61501;43.316;5.372;2023-12-29T07:06:23;12.30;99.90
73277;DHT22;61501;43.316;5.372;2023-12-29T07:08:49;12.30;99.90
73277;DHT22;61501;43.316;5.372;2023-12-29T07:11:14;12.30;99.90
73277;DHT22;61501;43.316;5.372;2023-12-29T07:13:40;12.40;99.90
73277;DHT22;61501;43.316;5.372;2023-12-29T07:16:06;12.40;99.90
73277;DHT22;61501;43.316;5.372;2023-12-29T07:18:32;12.30;99.90
73277;DHT22;61501;43.316;5.372;2023-12-29T07:20:57;12.30;99.90
73277;DHT22;61501;43.316;5.372;2023-12-29T07:23:23;12.30;99.90
73277;DHT22;61501;43.316;5.372;2023-12-29T07:25:49;12.30;99.90
73277;DHT22;61501;43.316;5.372;2023-12-29T07:28:15;12.30;99.90
73277;DHT22;61501;43.316;5.372;2023-12-29T07:30:40;12.40;99.90
73277;DHT22;61501;43.316;5.372;2023-12-29T07:33:06;12.30;99.90
73277;DHT22;61501;43.316;5.372;2023-12-29T07:35:32;12.30;99.90
73277;DHT22;61501;43.316;5.372;2023-12-29T07:37:57;12.30;99.90
73277;DHT22;61501;43.316;5.372;2023-12-29T07:40:23;12.40;99.90
73277;DHT22;61501;43.316;5.372;2023-12-29T07:42:49;12.40;99.90
73277;DHT22;61501;43.316;5.372;2023-12-29T07:45:16;12.40;99.90
73277;DHT22;61501;43.316;5.372;2023-12-29T07:47:42;12.50;99.90
73277;DHT22;61501;43.316;5.372;2023-12-29T07:50:08;12.50;99.90
73277;DHT22;61501;43.316;5.372;2023-12-29T07:52:34;12.60;99.90
73277;DHT22;61501;43.316;5.372;2023-12-29T07:55:00;12.60;99.90
73277;DHT22;61501;43.316;5.372;2023-12-29T07:57:25;12.70;99.90
73277;DHT22;61501;43.316;5.372;2023-12-29T07:59:51;12.70;99.90
73277;DHT22;61501;43.316;5.372;2023-12-29T08:02:17;12.80;99.90
73277;DHT22;61501;43.316;5.372;2023-12-29T08:04:42;12.80;99.90
73277;DHT22;61501;43.316;5.372;2023-12-29T08:07:08;12.80;99.90
73277;DHT22;61501;43.316;5.372;2023-12-29T08:09:35;12.90;99.90
73277;DHT22;61501;43.316;5.372;2023-12-29T08:12:01;12.90;99.90
73277;DHT22;61501;43.316;5.372;2023-12-29T08:14:26;12.90;99.90
73277;DHT22;61501;43.316;5.372;2023-12-29T08:16:52;13.00;99.90
73277;DHT22;61501;43.316;5.372;2023-12-29T08:19:20;13.00;99.90
73277;DHT22;61501;43.316;5.372;2023-12-29T08:21:46;13.00;99.90
73277;DHT22;61501;43.316;5.372;2023-12-29T08:24:13;12.90;99.90
73277;DHT22;61501;43.316;5.372;2023-12-29T08:26:44;13.00;99.90
73277;DHT22;61501;43.316;5.372;2023-12-29T08:29:14;12.90;99.90
73277;DHT22;61501;43.316;5.372;2023-12-29T08:31:44;13.00;99.90
73277;DHT22;61501;43.316;5.372;2023-12-29T08:34:10;13.00;99.90
73277;DHT22;61501;43.316;5.372;2023-12-29T08:37:11;13.10;99.90
73277;DHT22;61501;43.316;5.372;2023-12-29T08:39:39;13.20;99.90
73277;DHT22;61501;43.316;5.372;2023-12-29T08:42:05;13.20;99.90
73277;DHT22;61501;43.316;5.372;2023-12-29T08:44:31;13.20;99.90
73277;DHT22;61501;43.316;5.372;2023-12-29T08:46:57;13.30;99.90
73277;DHT22;61501;43.316;5.372;2023-12-29T08:49:22;13.30;99.90
73277;DHT22;61501;43.316;5.372;2023-12-29T08:51:48;13.40;99.90
73277;DHT22;61501;43.316;5.372;2023-12-29T08:54:13;13.40;99.90
73277;DHT22;61501;43.316;5.372;2023-12-29T08:56:42;13.40;99.90
73277;DHT22;61501;43.316;5.372;2023-12-29T08:59:08;13.40;99.90
73277;DHT22;61501;43.316;5.372;2023-12-29T09:01:33;13.40;99.90
73277;DHT22;61501;43.316;5.372;2023-12-29T09:03:59;13.50;99.90
73277;DHT22;61501;43.316;5.372;2023-12-29T09:06:25;13.50;99.90
73277;DHT22;61501;43.316;5.372;2023-12-29T09:08:57;13.60;99.90
73277;DHT22;61501;43.316;5.372;2023-12-29T09:11:23;13.80;99.90
73277;DHT22;61501;43.316;5.372;2023-12-29T09:13:49;13.70;99.90
73277;DHT22;61501;43.316;5.372;2023-12-29T09:16:14;13.60;99.90
73277;DHT22;61501;43.316;5.372;2023-12-29T09:18:40;13.60;99.90
73277;DHT22;61501;43.316;5.372;2023-12-29T09:21:05;13.70;99.90
73277;DHT22;61501;43.316;5.372;2023-12-29T09:23:31;13.60;99.90
73277;DHT22;61501;43.316;5.372;2023-12-29T09:25:57;13.80;99.90
73277;DHT22;61501;43.316;5.372;2023-12-29T09:28:23;13.80;99.90
73277;DHT22;61501;43.316;5.372;2023-12-29T09:30:48;13.90;99.90
73277;DHT22;61501;43.316;5.372;2023-12-29T09:33:14;13.90;99.90
73277;DHT22;61501;43.316;5.372;2023-12-29T09:35:40;13.90;99.90
73277;DHT22;61501;43.316;5.372;2023-12-29T09:38:05;13.90;99.90
73277;DHT22;61501;43.316;5.372;2023-12-29T09:40:31;14.00;99.90
73277;DHT22;61501;43.316;5.372;2023-12-29T09:42:58;14.00;99.90
73277;DHT22;61501;43.316;5.372;2023-12-29T09:45:24;14.00;99.90
73277;DHT22;61501;43.316;5.372;2023-12-29T09:47:54;14.10;99.90
73277;DHT22;61501;43.316;5.372;2023-12-29T09:50:20;14.00;99.90
73277;DHT22;61501;43.316;5.372;2023-12-29T09:52:48;14.10;99.90
73277;DHT22;61501;43.316;5.372;2023-12-29T09:55:16;14.10;99.90
73277;DHT22;61501;43.316;5.372;2023-12-29T09:57:43;14.20;99.90
73277;DHT22;61501;43.316;5.372;2023-12-29T10:00:11;14.30;99.90
73277;DHT22;61501;43.316;5.372;2023-12-29T10:02:37;14.40;99.90
73277;DHT22;61501;43.316;5.372;2023-12-29T10:05:04;14.60;99.90
73277;DHT22;61501;43.316;5.372;2023-12-29T10:07:33;14.70;99.90
73277;DHT22;61501;43.316;5.372;2023-12-29T10:10:01;14.70;99.90
73277;DHT22;61501;43.316;5.372;2023-12-29T10:12:28;14.80;99.90
73277;DHT22;61501;43.316;5.372;2023-12-29T10:15:05;14.90;99.90
73277;DHT22;61501;43.316;5.372;2023-12-29T10:17:41;14.80;99.90
73277;DHT22;61501;43.316;5.372;2023-12-29T10:22:54;14.80;99.90
73277;DHT22;61501;43.316;5.372;2023-12-29T10:25:25;14.70;99.90
73277;DHT22;61501;43.316;5.372;2023-12-29T10:27:51;14.80;99.90
73277;DHT22;61501;43.316;5.372;2023-12-29T10:30:17;15.10;99.90
73277;DHT22;61501;43.316;5.372;2023-12-29T10:32:47;15.40;99.90
73277;DHT22;61501;43.316;5.372;2023-12-29T10:35:14;15.50;99.90
73277;DHT22;61501;43.316;5.372;2023-12-29T10:37:40;15.50;99.90
73277;DHT22;61501;43.316;5.372;2023-12-29T10:40:07;15.70;99.90
73277;DHT22;61501;43.316;5.372;2023-12-29T10:42:33;15.70;99.90
73277;DHT22;61501;43.316;5.372;2023-12-29T10:45:09;15.90;99.90
73277;DHT22;61501;43.316;5.372;2023-12-29T10:47:35;15.80;99.90
73277;DHT22;61501;43.316;5.372;2023-12-29T10:50:02;15.70;99.90
73277;DHT22;61501;43.316;5.372;2023-12-29T10:52:32;15.50;99.90
73277;DHT22;61501;43.316;5.372;2023-12-29T10:55:24;15.50;99.90
73277;DHT22;61501;43.316;5.372;2023-12-29T10:58:00;15.60;99.90
73277;DHT22;61501;43.316;5.372;2023-12-29T11:00:29;15.80;99.90
73277;DHT22;61501;43.316;5.372;2023-12-29T11:02:55;15.80;99.90
73277;DHT22;61501;43.316;5.372;2023-12-29T11:05:25;16.00;99.90
73277;DHT22;61501;43.316;5.372;2023-12-29T11:07:51;16.10;99.90
73277;DHT22;61501;43.316;5.372;2023-12-29T11:10:20;16.20;99.90
73277;DHT22;61501;43.316;5.372;2023-12-29T11:12:47;16.20;99.90
73277;DHT22;61501;43.316;5.372;2023-12-29T11:15:14;16.30;99.90
73277;DHT22;61501;43.316;5.372;2023-12-29T11:17:41;16.20;99.90
73277;DHT22;61501;43.316;5.372;2023-12-29T11:20:17;16.40;99.90
73277;DHT22;61501;43.316;5.372;2023-12-29T11:22:46;16.60;99.90
73277;DHT22;61501;43.316;5.372;2023-12-29T11:25:12;16.80;99.90
73277;DHT22;61501;43.316;5.372;2023-12-29T11:27:38;17.10;99.90
73277;DHT22;61501;43.316;5.372;2023-12-29T11:30:04;17.40;99.90
73277;DHT22;61501;43.316;5.372;2023-12-29T11:38:23;17.50;99.90
73277;DHT22;61501;43.316;5.372;2023-12-29T11:41:09;17.70;99.90
73277;DHT22;61501;43.316;5.372;2023-12-29T11:43:37;17.80;99.90
73277;DHT22;61501;43.316;5.372;2023-12-29T11:46:03;18.20;99.90
73277;DHT22;61501;43.316;5.372;2023-12-29T11:48:53;18.50;99.90
73277;DHT22;61501;43.316;5.372;2023-12-29T11:51:33;23.10;99.90
73277;DHT22;61501;43.316;5.372;2023-12-29T11:54:01;28.60;74.60
73277;DHT22;61501;43.316;5.372;2023-12-29T11:56:34;30.40;59.20
73277;DHT22;61501;43.316;5.372;2023-12-29T11:59:16;31.40;56.20
73277;DHT22;61501;43.316;5.372;2023-12-29T12:01:44;31.80;52.20
73277;DHT22;61501;43.316;5.372;2023-12-29T12:04:42;29.10;56.10
73277;DHT22;61501;43.316;5.372;2023-12-29T12:07:16;26.90;63.80
73277;DHT22;61501;43.316;5.372;2023-12-29T12:09:42;26.60;66.50
73277;DHT22;61501;43.316;5.372;2023-12-29T12:12:09;24.90;69.80
73277;DHT22;61501;43.316;5.372;2023-12-29T12:14:51;23.10;78.20
73277;DHT22;61501;43.316;5.372;2023-12-29T12:17:33;22.50;81.00
73277;DHT22;61501;43.316;5.372;2023-12-29T12:20:03;21.20;87.60
73277;DHT22;61501;43.316;5.372;2023-12-29T12:22:31;20.20;91.40
73277;DHT22;61501;43.316;5.372;2023-12-29T12:25:00;19.60;94.30
73277;DHT22;61501;43.316;5.372;2023-12-29T12:27:26;19.30;96.90
73277;DHT22;61501;43.316;5.372;2023-12-29T12:29:54;19.20;97.10
73277;DHT22;61501;43.316;5.372;2023-12-29T12:32:22;20.00;95.70
73277;DHT22;61501;43.316;5.372;2023-12-29T12:34:47;23.60;83.40
73277;DHT22;61501;43.316;5.372;2023-12-29T12:37:27;25.60;70.10
73277;DHT22;61501;43.316;5.372;2023-12-29T12:39:54;26.70;65.90
73277;DHT22;61501;43.316;5.372;2023-12-29T12:42:20;26.90;65.60
73277;DHT22;61501;43.316;5.372;2023-12-29T12:47:54;25.00;67.30
73277;DHT22;61501;43.316;5.372;2023-12-29T12:50:20;22.20;81.80
73277;DHT22;61501;43.316;5.372;2023-12-29T12:52:46;20.70;90.90
73277;DHT22;61501;43.316;5.372;2023-12-29T12:55:12;19.90;93.90
73277;DHT22;61501;43.316;5.372;2023-12-29T12:57:39;19.30;96.10
73277;DHT22;61501;43.316;5.372;2023-12-29T13:00:06;18.90;98.10
73277;DHT22;61501;43.316;5.372;2023-12-29T13:02:34;18.20;99.90
73277;DHT22;61501;43.316;5.372;2023-12-29T13:05:01;17.90;99.90
73277;DHT22;61501;43.316;5.372;2023-12-29T13:07:30;17.50;99.90
73277;DHT22;61501;43.316;5.372;2023-12-29T13:09:56;17.40;99.90
73277;DHT22;61501;43.316;5.372;2023-12-29T13:12:23;17.10;99.90
73277;DHT22;61501;43.316;5.372;2023-12-29T13:14:49;16.80;99.90
73277;DHT22;61501;43.316;5.372;2023-12-29T13:17:17;16.30;99.90
73277;DHT22;61501;43.316;5.372;2023-12-29T13:19:43;16.00;99.90
73277;DHT22;61501;43.316;5.372;2023-12-29T13:22:10;15.80;99.90
73277;DHT22;61501;43.316;5.372;2023-12-29T13:24:43;15.80;99.90
73277;DHT22;61501;43.316;5.372;2023-12-29T13:27:09;15.80;99.90
73277;DHT22;61501;43.316;5.372;2023-12-29T13:29:35;15.80;99.90
73277;DHT22;61501;43.316;5.372;2023-12-29T13:32:19;15.80;99.90
73277;DHT22;61501;43.316;5.372;2023-12-29T13:35:01;15.80;99.90
73277;DHT22;61501;43.316;5.372;2023-12-29T13:37:35;15.90;99.90
73277;DHT22;61501;43.316;5.372;2023-12-29T13:42:45;15.90;99.90
73277;DHT22;61501;43.316;5.372;2023-12-29T13:45:12;15.80;99.90
73277;DHT22;61501;43.316;5.372;2023-12-29T13:47:38;15.80;99.90
73277;DHT22;61501;43.316;5.372;2023-12-29T13:50:05;15.80;99.90
73277;DHT22;61501;43.316;5.372;2023-12-29T13:52:36;15.70;99.90
73277;DHT22;61501;43.316;5.372;2023-12-29T13:55:02;15.80;99.90
73277;DHT22;61501;43.316;5.372;2023-12-29T13:57:32;15.80;99.90
73277;DHT22;61501;43.316;5.372;2023-12-29T14:00:17;15.90;99.90
73277;DHT22;61501;43.316;5.372;2023-12-29T14:02:48;15.80;99.90
73277;DHT22;61501;43.316;5.372;2023-12-29T14:05:36;15.80;99.90
73277;DHT22;61501;43.316;5.372;2023-12-29T14:10:31;15.90;99.90
73277;DHT22;61501;43.316;5.372;2023-12-29T14:13:23;16.20;99.90
73277;DHT22;61501;43.316;5.372;2023-12-29T14:15:49;16.20;99.90
73277;DHT22;61501;43.316;5.372;2023-12-29T14:20:54;16.50;99.90
73277;DHT22;61501;43.316;5.372;2023-12-29T14:23:20;16.70;99.90
73277;DHT22;61501;43.316;5.372;2023-12-29T14:25:46;16.70;99.90
73277;DHT22;61501;43.316;5.372;2023-12-29T14:28:18;16.70;99.90
73277;DHT22;61501;43.316;5.372;2023-12-29T14:30:44;16.80;99.90
73277;DHT22;61501;43.316;5.372;2023-12-29T14:33:10;16.80;99.90
73277;DHT22;61501;43.316;5.372;2023-12-29T14:35:36;17.10;99.90
73277;DHT22;61501;43.316;5.372;2023-12-29T14:38:02;17.60;99.90
73277;DHT22;61501;43.316;5.372;2023-12-29T14:40:29;18.00;99.90
73277;DHT22;61501;43.316;5.372;2023-12-29T14:42:55;18.20;99.90
73277;DHT22;61501;43.316;5.372;2023-12-29T14:45:20;18.40;99.90
73277;DHT22;61501;43.316;5.372;2023-12-29T14:47:46;18.30;99.90
73277;DHT22;61501;43.316;5.372;2023-12-29T14:50:14;18.40;99.90
73277;DHT22;61501;43.316;5.372;2023-12-29T14:52:40;17.70;99.90
73277;DHT22;61501;43.316;5.372;2023-12-29T14:55:06;17.50;99.90
73277;DHT22;61501;43.316;5.372;2023-12-29T14:57:31;17.40;99.90
73277;DHT22;61501;43.316;5.372;2023-12-29T14:59:57;17.10;99.90
73277;DHT22;61501;43.316;5.372;2023-12-29T15:02:23;16.80;99.90
73277;DHT22;61501;43.316;5.372;2023-12-29T15:04:48;16.30;99.90
73277;DHT22;61501;43.316;5.372;2023-12-29T15:07:15;16.20;99.90
73277;DHT22;61501;43.316;5.372;2023-12-29T15:09:41;16.00;99.90
73277;DHT22;61501;43.316;5.372;2023-12-29T15:12:07;16.00;99.90
73277;DHT22;61501;43.316;5.372;2023-12-29T15:14:33;15.80;99.90
73277;DHT22;61501;43.316;5.372;2023-12-29T15:16:58;15.80;99.90
73277;DHT22;61501;43.316;5.372;2023-12-29T15:19:24;15.80;99.90
73277;DHT22;61501;43.316;5.372;2023-12-29T15:21:49;15.70;99.90
73277;DHT22;61501;43.316;5.372;2023-12-29T15:24:19;15.70;99.90
73277;DHT22;61501;43.316;5.372;2023-12-29T15:26:45;15.80;99.90
73277;DHT22;61501;43.316;5.372;2023-12-29T15:29:11;15.80;99.90
73277;DHT22;61501;43.316;5.372;2023-12-29T15:31:36;15.70;99.90
73277;DHT22;61501;43.316;5.372;2023-12-29T15:34:02;15.40;99.90
73277;DHT22;61501;43.316;5.372;2023-12-29T15:36:27;15.30;99.90
73277;DHT22;61501;43.316;5.372;2023-12-29T15:38:53;15.20;99.90
73277;DHT22;61501;43.316;5.372;2023-12-29T15:41:19;15.10;99.90
73277;DHT22;61501;43.316;5.372;2023-12-29T15:43:44;15.10;99.90
73277;DHT22;61501;43.316;5.372;2023-12-29T15:46:19;15.10;99.90
73277;DHT22;61501;43.316;5.372;2023-12-29T15:48:48;14.90;99.90
73277;DHT22;61501;43.316;5.372;2023-12-29T15:51:14;14.90;99.90